Česky Dansk Deutsch English Español Suomi Français Magyar Italiano Nederlands norsk Polski Português svenska Türkçe

 

Het Weer

Konya (Turkije)

05:50, 31 juli 2016 (GMT)

NWNNE
WE
SWSSE
Home            
Konya Isparta Suleyman Demirel Sivrihisar Nevsehir Afyon Antalya Ankara / Guvercin Lik Ankara / Etimesgut Murted Tur-Afb Ankara / Esenboga Cardak Eskisehir Adana / Sakirpasa Kayseri / Erkilet Adana / Incirlik Usak Athalassa Ercan Iskenderun Larnaca Airport Paphos Airport Dalaman

Om een weerknop op uw website of weblog te plaatsen, copieer onderstaande code en plak die in uw pagina. In het eerste vakje staat HTML-code, in het tweede vakje UBB-code.


Add to Google

Details

Wind speed:4 bf, 14 kn, 7.2 m/s, 16.1 miles/h, 25.9 km/h
Wind direction:N, 010°
Visibility:Greater than 10000 m, 10 km, 32800 ft, 6.2 miles
Clouds:CAVOC
Temperature:25°C, 77°F
Gefühlte Temperatur:26°C, 78°F
Dew-point:9°C, 48°F
Atmospheric pressure:1014 hPa, 760.6 mmHg, 29.94 inHg, 1.001 atm
Relative humidity:36.2 %
METAR:LTAN 310550Z 01014KT CAVOK 25/09 Q1014 NOSIG

Snelkoppelingen

Actuele weersinformatie van de hele wereld. Voeg locaties toe met het plus (+) symbool. Deze snelkoppelingen kunnen worden toegevoegd aan Google.

Lid van de Technetium groep

website free tracking
StatCounter NetStat W3C Validator

29-06-2022 12:03:17
astro.technetium.be money.technetium.be phote.technetium.be tafeltennistafel.technetium.be www.ligfiets.net